Time;durP1;ratioP1;P1;durP2;ratioP2;P2;SDS_P1;SDS_P2;PMS_P1;PMS_P2;Temp;Humidity;BMP_temperature;BMP_pressure;BME280_temperature;BME280_humidity;BME280_pressure;Samples;Min_cycle;Max_cycle;Signal;HPM_P1;HPM_P2
2022/06/24 00:00:12;;;;;;;4.75;3.95;;;;;;;17.84;79.70;99499.94;1772956;80;21057;-81
2022/06/24 00:02:40;;;;;;;3.77;3.40;;;;;;;17.78;79.85;99506.17;1755460;81;21042;-83
2022/06/24 00:05:14;;;;;;;3.98;3.58;;;;;;;17.69;79.93;99504.27;1759435;80;21028;-80
2022/06/24 00:07:50;;;;;;;5.83;4.28;;;;;;;17.63;80.27;99505.97;1773609;79;21225;-80
2022/06/24 00:10:24;;;;;;;4.20;3.65;;;;;;;17.60;80.58;99501.59;1764360;79;21024;-84
2022/06/24 00:12:52;;;;;;;4.22;3.27;;;;;;;17.61;80.75;99507.24;1768800;79;21028;-81
2022/06/24 00:15:27;;;;;;;4.15;3.83;;;;;;;17.68;80.80;99504.80;1772668;79;21075;-83
2022/06/24 00:17:54;;;;;;;3.92;3.37;;;;;;;17.64;80.64;99504.94;1759907;80;21002;-83
2022/06/24 00:20:21;;;;;;;5.62;4.12;;;;;;;17.59;80.98;99499.39;1748030;81;21274;-83
2022/06/24 00:22:50;;;;;;;4.85;4.22;;;;;;;17.56;81.13;99506.56;1773415;79;20946;-83
2022/06/24 00:25:23;;;;;;;6.17;3.80;;;;;;;17.59;81.19;99506.11;1752220;80;20984;-81
2022/06/24 00:28:09;;;;;;;;;;;;;;;17.68;80.88;99499.95;1733349;81;20957;-80
2022/06/24 00:30:52;;;;;;;4.65;4.08;;;;;;;17.81;80.30;99507.89;1756942;81;20525;-81
2022/06/24 00:33:20;;;;;;;4.65;4.20;;;;;;;17.81;80.30;99506.55;1767430;79;21271;-81
2022/06/24 00:35:49;;;;;;;4.45;4.03;;;;;;;17.82;80.78;99512.21;1736330;82;21043;-82
2022/06/24 00:38:29;;;;;;;4.42;3.85;;;;;;;17.82;80.73;99514.08;1764597;81;21020;-83
2022/06/24 00:41:05;;;;;;;9.80;4.62;;;;;;;17.86;80.48;99512.09;1735784;80;20982;-83
2022/06/24 00:43:36;;;;;;;4.30;3.90;;;;;;;17.95;80.16;99503.77;1773025;79;21073;-84
2022/06/24 00:46:16;;;;;;;4.62;4.00;;;;;;;17.92;80.31;99502.33;1736110;81;21176;-84
2022/06/24 00:48:50;;;;;;;4.80;4.30;;;;;;;17.87;80.59;99506.22;1771519;79;21040;-83
2022/06/24 00:51:17;;;;;;;4.08;3.67;;;;;;;17.82;80.86;99503.34;1781192;79;21017;-83
2022/06/24 00:53:51;;;;;;;5.03;4.40;;;;;;;17.81;81.08;99494.46;1789711;79;21444;-83
2022/06/24 00:56:20;;;;;;;4.33;3.92;;;;;;;17.92;81.15;99492.92;1766643;79;21016;-81
2022/06/24 00:59:03;;;;;;;5.42;4.10;;;;;;;17.91;81.03;99491.83;1738378;81;21743;-80
2022/06/24 01:01:36;;;;;;;7.22;4.70;;;;;;;17.87;80.87;99492.79;1781977;79;20996;-80
2022/06/24 01:04:04;;;;;;;5.70;4.25;;;;;;;17.84;81.03;99493.22;1753022;81;21054;-79
2022/06/24 01:06:31;;;;;;;5.65;4.08;;;;;;;17.82;81.02;99490.72;1757636;80;21036;-82
2022/06/24 01:08:57;;;;;;;3.92;3.58;;;;;;;17.87;81.00;99495.47;1730763;81;21112;-82
2022/06/24 01:11:36;;;;;;;4.55;3.95;;;;;;;17.96;80.70;99498.15;1730861;81;21149;-81
2022/06/24 01:14:03;;;;;;;5.00;4.17;;;;;;;17.96;80.50;99498.68;1702238;83;21062;-80
2022/06/24 01:16:30;;;;;;;6.40;4.05;;;;;;;17.92;80.51;99502.33;1725213;81;21036;-80
2022/06/24 01:18:59;;;;;;;4.40;4.00;;;;;;;17.86;80.65;99506.72;1726801;83;21613;-81
2022/06/24 01:21:37;;;;;;;5.45;4.12;;;;;;;17.87;80.54;99499.50;1724489;82;21066;-78
2022/06/24 01:24:11;;;;;;;4.70;3.85;;;;;;;17.97;80.34;99509.75;1701218;82;21152;-79
2022/06/24 01:26:40;;;;;;;6.15;3.90;;;;;;;18.06;79.95;99505.20;1721193;81;21037;-84
2022/06/24 01:29:08;;;;;;;5.37;3.83;;;;;;;18.07;80.03;99510.05;1725631;82;21086;-83
2022/06/24 01:31:35;;;;;;;5.58;4.17;;;;;;;18.06;79.85;99511.11;1722710;82;21070;-80
2022/06/24 01:34:03;;;;;;;5.15;4.30;;;;;;;18.06;79.89;99508.42;1734158;81;21573;-81
2022/06/24 01:36:30;;;;;;;5.47;3.87;;;;;;;18.05;80.04;99506.76;1726472;82;21305;-80
2022/06/24 01:38:59;;;;;;;4.12;3.75;;;;;;;18.11;80.05;99496.45;1726185;81;21593;-83
2022/06/24 01:41:25;;;;;;;5.87;4.15;;;;;;;18.23;80.08;99497.87;1727948;81;21029;-79
2022/06/24 01:43:53;;;;;;;6.03;4.10;;;;;;;18.23;80.07;99497.37;1726192;83;21096;-78
2022/06/24 01:46:19;;;;;;;5.42;4.00;;;;;;;18.25;80.12;99497.13;1726183;81;21058;-76
2022/06/24 01:48:46;;;;;;;11.80;4.40;;;;;;;18.20;79.90;99487.05;1723095;81;21869;-78
2022/06/24 01:51:13;;;;;;;6.17;4.45;;;;;;;18.12;80.06;99491.39;1725037;82;21507;-78
2022/06/24 01:53:40;;;;;;;6.40;4.78;;;;;;;18.15;79.95;99494.95;1724553;81;21076;-77
2022/06/24 01:56:06;;;;;;;5.92;4.95;;;;;;;18.27;79.65;99493.19;1738330;81;21119;-78
2022/06/24 01:58:34;;;;;;;5.47;4.30;;;;;;;18.30;79.35;99491.09;1724640;81;21054;-80
2022/06/24 02:01:01;;;;;;;7.08;4.60;;;;;;;18.28;79.06;99488.09;1726220;81;21251;-79
2022/06/24 02:03:32;;;;;;;9.10;4.45;;;;;;;18.26;78.77;99487.50;1728966;81;21057;-78
2022/06/24 02:06:03;;;;;;;4.50;4.10;;;;;;;18.26;78.66;99490.72;1734008;81;20951;-81
2022/06/24 02:08:29;;;;;;;5.70;3.80;;;;;;;18.31;78.37;99490.03;1729911;81;20972;-82
2022/06/24 02:13:46;;;;;;;7.40;3.80;;;;;;;18.36;77.86;99488.84;1723954;82;21145;-83
2022/06/24 02:16:12;;;;;;;7.05;3.72;;;;;;;18.33;77.83;99487.44;1747122;80;21068;-82
2022/06/24 02:18:39;;;;;;;8.08;4.20;;;;;;;18.28;77.81;99486.75;1735448;81;21000;-84
2022/06/24 02:21:05;;;;;;;5.15;4.30;;;;;;;18.25;77.76;99485.02;1754728;80;21603;-82
2022/06/24 02:23:32;;;;;;;7.30;3.80;;;;;;;18.29;77.79;99480.84;1726481;82;21049;-80
2022/06/24 02:25:59;;;;;;;4.28;3.52;;;;;;;18.38;77.55;99478.15;1761824;80;21163;-78
2022/06/24 02:28:25;;;;;;;8.38;3.90;;;;;;;18.36;77.48;99486.16;1713016;81;21057;-76
2022/06/24 02:30:54;;;;;;;4.55;3.45;;;;;;;18.32;77.50;99484.97;1760924;80;21036;-75
2022/06/24 02:33:20;;;;;;;4.00;3.60;;;;;;;18.30;77.61;99482.49;1761317;80;21068;-75
2022/06/24 02:35:47;;;;;;;5.17;3.27;;;;;;;18.27;77.46;99481.09;1759885;80;21545;-76
2022/06/24 02:38:14;;;;;;;6.22;3.22;;;;;;;18.31;77.39;99480.12;1764130;80;21138;-77
2022/06/24 02:40:47;;;;;;;3.60;2.95;;;;;;;18.39;77.22;99480.34;1765315;80;21079;-76
2022/06/24 02:43:22;;;;;;;;;;;;;;;18.38;77.21;99477.34;1724980;81;21087;-76
2022/06/24 02:46:02;;;;;;;6.42;3.55;;;;;;;18.33;77.14;99477.18;1772618;80;20213;-76
2022/06/24 02:48:29;;;;;;;4.42;3.60;;;;;;;18.28;77.21;99482.72;1728018;81;21080;-76
2022/06/24 02:51:04;;;;;;;6.50;3.80;;;;;;;18.26;77.18;99484.80;1757502;81;21584;-78
2022/06/24 02:53:32;;;;;;;3.47;2.87;;;;;;;18.26;77.07;99484.80;1744747;81;21206;-76
2022/06/24 02:56:06;;;;;;;3.77;2.70;;;;;;;18.34;76.88;99482.87;1755135;81;21108;-75
2022/06/24 02:58:34;;;;;;;3.85;3.00;;;;;;;18.45;76.57;99484.80;1746284;81;21552;-73
2022/06/24 03:01:01;;;;;;;3.77;2.92;;;;;;;18.46;76.25;99483.21;1740255;81;21025;-76
2022/06/24 03:03:28;;;;;;;5.20;3.40;;;;;;;18.47;76.17;99494.28;1746699;81;21235;-77
2022/06/24 03:05:54;;;;;;;3.72;3.20;;;;;;;18.47;76.10;99484.05;1769235;80;21060;-75
2022/06/24 03:08:23;;;;;;;6.62;3.47;;;;;;;18.45;75.95;99488.84;1772408;80;21536;-74
2022/06/24 03:10:49;;;;;;;2.85;2.50;;;;;;;18.44;75.93;99492.56;1711762;82;20998;-74
2022/06/24 03:13:16;;;;;;;5.85;2.90;;;;;;;18.50;75.75;99487.62;1738517;81;21025;-75
2022/06/24 03:15:43;;;;;;;5.53;3.20;;;;;;;18.60;75.36;99487.92;1743562;81;21136;-75
2022/06/24 03:18:11;;;;;;;5.53;2.60;;;;;;;18.62;75.15;99481.79;1748587;81;21561;-73
2022/06/24 03:20:38;;;;;;;4.90;3.17;;;;;;;18.61;74.87;99486.05;1734657;82;21037;-74
2022/06/24 03:23:05;;;;;;;5.50;2.90;;;;;;;18.59;74.37;99484.11;1742452;81;21073;-75
2022/06/24 03:25:32;;;;;;;6.03;2.92;;;;;;;18.58;73.60;99485.14;1739054;81;21635;-78
2022/06/24 03:28:01;;;;;;;3.95;3.00;;;;;;;18.58;73.12;99484.64;1748548;81;21143;-78
2022/06/24 03:30:28;;;;;;;3.27;2.55;;;;;;;18.57;72.50;99482.98;1744869;81;20988;-78
2022/06/24 03:32:54;;;;;;;6.53;3.05;;;;;;;18.58;72.01;99485.14;1741877;80;21119;-75
2022/06/24 03:35:21;;;;;;;4.83;2.75;;;;;;;18.60;71.71;99491.12;1728449;81;20982;-75
2022/06/24 03:37:47;;;;;;;3.12;2.83;;;;;;;18.60;71.38;99486.58;1758099;80;21037;-78
2022/06/24 03:40:14;;;;;;;4.50;2.87;;;;;;;18.70;70.88;99491.92;1728584;81;21115;-77
2022/06/24 03:42:40;;;;;;;3.05;2.50;;;;;;;18.80;70.16;99489.56;1753480;80;21071;-79
2022/06/24 03:45:08;;;;;;;5.50;3.02;;;;;;;18.81;70.11;99489.84;1765215;80;21032;-78
2022/06/24 03:47:35;;;;;;;6.25;2.85;;;;;;;18.81;69.97;99494.72;1750241;80;20984;-79
2022/06/24 03:50:02;;;;;;;4.95;2.95;;;;;;;18.82;69.92;99496.88;1761279;80;21019;-77
2022/06/24 03:52:29;;;;;;;4.78;2.83;;;;;;;18.84;69.86;99494.24;1768274;80;22024;-77
2022/06/24 03:54:55;;;;;;;3.45;2.87;;;;;;;18.86;69.83;99496.72;1766443;80;21549;-75
2022/06/24 03:57:22;;;;;;;3.15;2.70;;;;;;;18.86;69.91;99492.67;1726765;81;21057;-76
2022/06/24 03:59:48;;;;;;;3.92;2.75;;;;;;;18.87;69.89;99499.69;1757536;80;21039;-75
2022/06/24 04:02:15;;;;;;;4.55;3.00;;;;;;;18.88;69.96;99504.56;1737673;81;21052;-77
2022/06/24 04:04:41;;;;;;;4.53;2.83;;;;;;;18.85;70.34;99504.48;1705581;83;21210;-73
2022/06/24 04:07:08;;;;;;;2.75;2.55;;;;;;;18.92;70.64;99505.22;1758262;80;21104;-75
2022/06/24 04:09:35;;;;;;;7.75;2.70;;;;;;;19.03;70.52;99497.70;1757360;80;21081;-74
2022/06/24 04:12:02;;;;;;;6.78;3.17;;;;;;;19.09;70.45;99500.01;1773366;79;21075;-75
2022/06/24 04:17:14;;;;;;;5.15;2.80;;;;;;;19.14;70.27;99498.81;1757152;80;21313;-75
2022/06/24 04:19:41;;;;;;;4.30;3.10;;;;;;;19.14;70.11;99495.27;1758515;80;20957;-73
2022/06/24 04:22:08;;;;;;;5.75;3.37;;;;;;;19.18;69.97;99497.80;1759991;80;21512;-76
2022/06/24 04:24:34;;;;;;;5.80;2.87;;;;;;;19.20;69.85;99497.87;1770504;80;21520;-73
2022/06/24 04:27:01;;;;;;;3.20;2.80;;;;;;;19.22;69.53;99502.51;1770539;80;21025;-76
2022/06/24 04:29:27;;;;;;;5.53;3.17;;;;;;;19.24;69.39;99494.20;1775819;80;21280;-75
2022/06/24 04:31:54;;;;;;;5.12;3.25;;;;;;;19.27;69.22;99499.11;1757484;80;20997;-73
2022/06/24 04:34:21;;;;;;;3.62;2.87;;;;;;;19.29;68.98;99498.35;1773085;80;21040;-75
2022/06/24 04:36:47;;;;;;;7.58;3.60;;;;;;;19.30;68.63;99495.97;1761634;80;21048;-77
2022/06/24 04:39:14;;;;;;;4.40;2.80;;;;;;;19.31;68.35;99495.44;1764315;80;21039;-76
2022/06/24 04:41:40;;;;;;;6.03;3.10;;;;;;;19.30;68.02;99498.66;1785384;80;21214;-75
2022/06/24 04:44:07;;;;;;;5.92;3.10;;;;;;;19.30;68.05;99503.23;1780170;80;21223;-77
2022/06/24 04:46:33;;;;;;;5.08;2.95;;;;;;;19.29;67.93;99506.43;1774114;80;20993;-74
2022/06/24 04:49:00;;;;;;;4.15;2.95;;;;;;;19.32;67.91;99505.17;1788399;80;20996;-74
2022/06/24 04:51:28;;;;;;;3.65;3.02;;;;;;;19.35;67.81;99505.50;1784183;80;21508;-76
2022/06/24 04:53:54;;;;;;;4.08;3.17;;;;;;;19.40;67.87;99514.25;1761248;80;21842;-78
2022/06/24 04:56:22;;;;;;;5.15;3.22;;;;;;;19.47;67.89;99504.70;1756906;80;21012;-76
2022/06/24 04:58:49;;;;;;;3.35;3.05;;;;;;;19.51;67.84;99511.27;1758386;80;21464;-78
2022/06/24 05:01:15;;;;;;;4.10;2.95;;;;;;;19.54;67.65;99514.85;1768656;80;21079;-75
2022/06/24 05:03:43;;;;;;;3.12;2.83;;;;;;;19.56;67.32;99522.98;1745379;81;21499;-78
2022/06/24 05:06:09;;;;;;;6.12;3.55;;;;;;;19.54;67.25;99522.41;1757254;80;21504;-78
2022/06/24 05:08:37;;;;;;;7.70;3.08;;;;;;;19.53;67.42;99524.82;1751809;80;21027;-76
2022/06/24 05:11:04;;;;;;;5.55;3.25;;;;;;;19.53;67.69;99532.05;1763238;79;20994;-78
2022/06/24 05:13:32;;;;;;;3.65;3.30;;;;;;;19.54;67.65;99528.33;1786609;80;21036;-76
2022/06/24 05:15:58;;;;;;;3.52;3.10;;;;;;;19.55;67.76;99517.33;1771128;80;21528;-76
2022/06/24 05:18:25;;;;;;;4.28;2.95;;;;;;;19.58;67.43;99522.77;1737184;81;21191;-78
2022/06/24 05:20:51;;;;;;;5.47;3.20;;;;;;;19.58;67.22;99518.72;1759093;80;21017;-75
2022/06/24 05:23:18;;;;;;;4.00;2.98;;;;;;;19.59;67.06;99523.08;1725578;81;21027;-75
2022/06/24 05:25:45;;;;;;;5.08;3.37;;;;;;;19.60;67.14;99524.16;1735725;81;21052;-75
2022/06/24 05:28:11;;;;;;;5.35;2.95;;;;;;;19.63;66.84;99516.97;1738303;81;21041;-77
2022/06/24 05:30:38;;;;;;;3.77;3.40;;;;;;;19.67;66.33;99515.98;1758141;80;21132;-76
2022/06/24 05:33:05;;;;;;;3.50;3.20;;;;;;;19.74;66.09;99519.42;1764570;80;21029;-75
2022/06/24 05:35:32;;;;;;;8.68;3.02;;;;;;;19.81;65.85;99524.69;1722022;81;22040;-72
2022/06/24 05:37:58;;;;;;;7.78;2.90;;;;;;;19.88;65.76;99523.24;1726816;81;21063;-74
2022/06/24 05:40:25;;;;;;;4.53;3.12;;;;;;;19.95;65.43;99522.58;1755804;80;21473;-72
2022/06/24 05:42:52;;;;;;;4.20;3.25;;;;;;;20.01;65.43;99527.02;1757838;80;22437;-74
2022/06/24 05:45:19;;;;;;;3.87;3.47;;;;;;;20.08;65.03;99520.98;1758883;80;21541;-75
2022/06/24 05:47:45;;;;;;;2.83;2.62;;;;;;;20.16;64.60;99527.90;1723995;81;21020;-73
2022/06/24 05:50:12;;;;;;;6.03;3.20;;;;;;;20.22;64.45;99531.84;1758163;80;21103;-74
2022/06/24 05:55:24;;;;;;;3.47;3.17;;;;;;;20.49;64.11;99532.64;1760190;80;22103;-73
2022/06/24 05:57:52;;;;;;;5.35;3.22;;;;;;;20.69;63.59;99531.48;1726107;81;21041;-75
2022/06/24 06:00:19;;;;;;;4.03;3.20;;;;;;;20.85;63.63;99533.40;1759189;80;21024;-74
2022/06/24 06:02:46;;;;;;;11.12;3.75;;;;;;;21.00;63.35;99535.58;1726869;81;21553;-74
2022/06/24 06:05:13;;;;;;;3.92;3.50;;;;;;;21.11;62.99;99546.02;1759094;80;21035;-73
2022/06/24 06:07:39;;;;;;;4.97;3.72;;;;;;;21.16;62.56;99539.38;1724988;81;21158;-75
2022/06/24 06:10:08;;;;;;;4.87;3.35;;;;;;;21.19;62.22;99540.25;1758477;80;20993;-74
2022/06/24 06:12:36;;;;;;;3.60;3.30;;;;;;;21.20;61.89;99541.33;1723230;81;21117;-73
2022/06/24 06:15:04;;;;;;;9.13;3.20;;;;;;;21.23;61.29;99534.65;1744038;81;21225;-72
2022/06/24 06:17:31;;;;;;;3.40;3.12;;;;;;;21.29;61.43;99538.27;1735461;81;21105;-73
2022/06/24 06:19:58;;;;;;;4.12;3.15;;;;;;;21.38;60.70;99532.72;1729636;81;21254;-74
2022/06/24 06:22:24;;;;;;;4.83;3.55;;;;;;;21.48;60.68;99538.86;1729195;80;21489;-73
2022/06/24 06:24:51;;;;;;;4.00;3.40;;;;;;;21.56;60.33;99535.77;1753937;80;21020;-75
2022/06/24 06:27:18;;;;;;;6.00;3.67;;;;;;;21.62;60.34;99540.19;1731099;81;21046;-75
2022/06/24 06:29:45;;;;;;;6.25;3.10;;;;;;;21.67;60.36;99542.15;1756086;80;21087;-74
2022/06/24 06:32:11;;;;;;;9.50;3.60;;;;;;;21.75;60.63;99545.27;1717578;81;21158;-74
2022/06/24 06:34:39;;;;;;;5.67;3.67;;;;;;;21.84;60.52;99545.66;1733718;81;21513;-74
2022/06/24 06:38:40;;;;;;;4.03;3.52;;;;;;;22.04;60.22;99549.23;1880248;75;22515;-75
2022/06/24 06:41:07;;;;;;;4.60;4.00;;;;;;;22.10;60.19;99541.46;1843036;77;21016;-76
2022/06/24 06:43:33;;;;;;;4.12;3.20;;;;;;;22.23;60.04;99539.45;1841322;77;21094;-75
2022/06/24 06:46:01;;;;;;;4.90;3.98;;;;;;;22.31;59.85;99550.72;1836796;77;20976;-75
2022/06/24 06:48:28;;;;;;;5.50;4.08;;;;;;;22.36;59.85;99552.12;1843592;77;21227;-73
2022/06/24 06:50:57;;;;;;;4.75;3.25;;;;;;;22.41;59.66;99555.44;1836522;77;20961;-75
2022/06/24 06:53:25;;;;;;;5.70;3.62;;;;;;;22.43;59.43;99560.07;1851312;77;22061;-75
2022/06/24 06:55:53;;;;;;;12.78;4.05;;;;;;;22.43;59.51;99562.78;1846416;77;21089;-75
2022/06/24 06:58:19;;;;;;;4.90;3.60;;;;;;;22.46;59.37;99560.09;1839522;77;21011;-76
2022/06/24 07:00:47;;;;;;;5.75;3.50;;;;;;;22.48;59.30;99553.35;1841287;77;21033;-74
2022/06/24 07:03:13;;;;;;;8.90;4.50;;;;;;;22.55;59.37;99557.24;1854068;77;21009;-74
2022/06/24 07:05:42;;;;;;;6.03;3.75;;;;;;;22.62;59.11;99552.98;1850322;77;21120;-75
2022/06/24 07:08:11;;;;;;;7.92;4.00;;;;;;;22.67;58.81;99557.11;1856491;77;21052;-76
2022/06/24 07:10:39;;;;;;;5.37;3.47;;;;;;;22.72;58.69;99559.89;1854642;77;21010;-75
2022/06/24 07:13:06;;;;;;;5.03;3.92;;;;;;;22.78;58.46;99557.52;1859839;77;21083;-74
2022/06/24 07:15:33;;;;;;;4.58;3.50;;;;;;;22.89;57.90;99556.57;1840485;76;20982;-76
2022/06/24 07:18:00;;;;;;;5.17;4.45;;;;;;;22.95;57.95;99558.80;1841335;76;21079;-76
2022/06/24 07:20:27;;;;;;;4.55;4.12;;;;;;;23.00;57.63;99554.77;1842332;77;21103;-73
2022/06/24 07:22:53;;;;;;;5.60;3.90;;;;;;;23.04;57.33;99557.83;1833292;76;21013;-74
2022/06/24 07:25:20;;;;;;;4.90;3.90;;;;;;;23.07;57.31;99561.39;1849386;77;21024;-75
2022/06/24 07:27:47;;;;;;;3.67;3.37;;;;;;;23.12;57.43;99564.98;1849332;76;21063;-76
2022/06/24 07:30:14;;;;;;;4.42;4.03;;;;;;;23.18;57.38;99567.20;1838778;75;21044;-74
2022/06/24 07:32:41;;;;;;;4.05;3.65;;;;;;;23.20;56.97;99566.92;1784899;79;21210;-75
2022/06/24 07:35:08;;;;;;;4.10;3.72;;;;;;;23.21;56.20;99557.19;1786596;80;21078;-75
2022/06/24 07:37:34;;;;;;;4.53;4.05;;;;;;;23.21;55.90;99564.52;1806174;77;21054;-75
2022/06/24 07:40:01;;;;;;;4.83;3.60;;;;;;;23.19;54.75;99568.83;1785725;78;21060;-74
2022/06/24 07:42:27;;;;;;;4.60;4.20;;;;;;;23.15;54.53;99561.74;1780954;78;20988;-75
2022/06/24 07:44:54;;;;;;;4.67;3.77;;;;;;;23.12;54.20;99562.27;1816629;77;21599;-73
2022/06/24 07:47:20;;;;;;;4.83;3.92;;;;;;;23.14;53.83;99566.89;1816315;77;21259;-74
2022/06/24 07:49:47;;;;;;;8.68;3.70;;;;;;;23.17;53.75;99572.33;1815008;77;21044;-74
2022/06/24 07:52:14;;;;;;;4.05;3.33;;;;;;;23.21;53.38;99566.67;1777781;78;21320;-72
2022/06/24 07:54:40;;;;;;;4.90;3.95;;;;;;;23.25;53.43;99562.92;1809823;78;21089;-74
2022/06/24 07:57:07;;;;;;;5.50;4.05;;;;;;;23.29;52.81;99573.53;1768868;80;21481;-75
2022/06/24 07:59:36;;;;;;;5.75;3.92;;;;;;;23.29;52.96;99564.05;1787005;78;21332;-74
2022/06/24 08:02:07;;;;;;;5.72;3.85;;;;;;;23.34;52.67;99574.40;1791057;78;21088;-75
2022/06/24 08:04:35;;;;;;;5.17;3.72;;;;;;;23.35;52.50;99564.37;1784443;78;21493;-74
2022/06/24 08:07:04;;;;;;;5.85;4.37;;;;;;;23.33;52.60;99564.65;1795639;78;21623;-74
2022/06/24 08:09:32;;;;;;;6.10;4.42;;;;;;;23.34;52.59;99574.40;1815984;78;21295;-75
2022/06/24 08:12:00;;;;;;;5.10;3.52;;;;;;;;;;1815835;78;21076;-74
2022/06/24 08:14:27;;;;;;;4.42;4.00;;;;;;;;;;1817116;78;21085;-74
2022/06/24 08:16:55;;;;;;;6.08;4.28;;;;;;;23.39;52.23;99567.39;1815169;78;21612;-75
2022/06/24 08:19:22;;;;;;;6.42;4.35;;;;;;;23.36;52.39;99555.17;1816015;78;20994;-75
2022/06/24 08:21:48;;;;;;;5.12;4.53;;;;;;;23.35;52.62;99561.66;1817121;77;21269;-77
2022/06/24 08:24:15;;;;;;;4.58;4.05;;;;;;;23.40;52.52;99563.61;1811395;77;21104;-75
2022/06/24 08:26:41;;;;;;;7.80;3.95;;;;;;;23.47;52.32;99560.14;1793204;79;21011;-75
2022/06/24 08:29:09;;;;;;;5.05;4.03;;;;;;;23.52;52.13;99556.12;1818584;78;21045;-77
2022/06/24 08:31:36;;;;;;;5.62;4.35;;;;;;;23.56;51.92;99564.02;1811239;77;21036;-75
2022/06/24 08:34:02;;;;;;;6.28;4.08;;;;;;;23.59;51.97;99555.92;1785082;78;21221;-74
2022/06/24 08:36:29;;;;;;;6.08;3.92;;;;;;;23.62;52.07;99560.27;1814230;77;21049;-73
2022/06/24 08:38:56;;;;;;;5.83;3.87;;;;;;;23.66;52.10;99558.70;1811604;78;21002;-74
2022/06/24 08:41:25;;;;;;;5.78;4.10;;;;;;;23.72;52.06;99556.30;1784776;78;21087;-73
2022/06/24 08:43:52;;;;;;;9.10;4.50;;;;;;;23.81;51.66;99556.66;1786858;78;21009;-73
2022/06/24 08:46:19;;;;;;;6.62;4.42;;;;;;;23.92;51.78;99550.78;1790026;80;21144;-75
2022/06/24 08:48:45;;;;;;;4.78;3.90;;;;;;;24.08;51.56;99554.41;1790155;78;21112;-75
2022/06/24 08:51:12;;;;;;;5.62;4.37;;;;;;;24.24;51.50;99549.88;1786130;78;21101;-74
2022/06/24 08:53:39;;;;;;;5.92;4.10;;;;;;;24.43;51.45;99552.97;1786476;78;21597;-75
2022/06/24 08:56:09;;;;;;;5.53;4.47;;;;;;;24.65;50.84;99547.41;1790672;78;21576;-73
2022/06/24 08:58:36;;;;;;;4.37;3.98;;;;;;;24.83;50.67;99545.55;1816915;77;21505;-73
2022/06/24 09:01:02;;;;;;;6.50;4.83;;;;;;;25.01;50.74;99547.50;1787946;78;20997;-76
2022/06/24 09:03:30;;;;;;;8.13;4.35;;;;;;;25.15;50.63;99541.84;1818736;77;21044;-75
2022/06/24 09:05:56;;;;;;;8.25;4.22;;;;;;;25.29;50.96;99540.24;1806526;78;21069;-76
2022/06/24 09:08:25;;;;;;;6.75;4.67;;;;;;;25.51;50.90;99541.33;1771405;78;20971;-75
2022/06/24 09:11:07;;;;;;;5.00;4.50;;;;;;;25.75;50.54;99535.88;1770617;80;21078;-76
2022/06/24 09:13:46;;;;;;;5.73;4.27;;;;;;;25.96;49.51;99536.19;1745881;80;21532;-74
2022/06/24 09:16:17;;;;;;;5.22;4.20;;;;;;;26.22;48.99;99542.37;1778306;80;21303;-76
2022/06/24 09:18:57;;;;;;;6.37;4.33;;;;;;;26.57;48.50;99529.72;1814012;77;21052;-77
2022/06/24 09:21:28;;;;;;;4.65;4.17;;;;;;;26.98;47.11;99526.80;1823063;78;21005;-75
2022/06/24 09:23:58;;;;;;;5.35;4.10;;;;;;;27.39;46.09;99518.91;1813039;77;21257;-76
2022/06/24 09:26:39;;;;;;;7.90;4.03;;;;;;;27.61;45.15;99519.28;1813899;77;21050;-75
2022/06/24 09:29:11;;;;;;;6.03;4.15;;;;;;;27.82;45.08;99525.92;1785276;79;21016;-78
2022/06/24 09:31:39;;;;;;;5.78;4.33;;;;;;;28.05;44.51;99513.44;1804935;78;21016;-77
2022/06/24 09:34:13;;;;;;;4.50;4.10;;;;;;;28.36;43.80;99513.08;1799584;79;21033;-77
2022/06/24 09:36:43;;;;;;;5.03;4.53;;;;;;;28.72;43.54;99505.24;1790092;79;21167;-77
2022/06/24 09:39:12;;;;;;;4.47;3.95;;;;;;;29.05;43.24;99510.78;1774768;79;20967;-75
2022/06/24 09:41:46;;;;;;;6.60;5.85;;;;;;;29.40;42.54;99501.81;1776025;80;21046;-77
2022/06/24 09:44:13;;;;;;;5.30;4.20;;;;;;;29.55;41.86;99504.30;1794289;79;20989;-77
2022/06/24 09:46:40;;;;;;;5.28;4.25;;;;;;;29.57;41.37;99508.08;1791888;80;22261;-76
2022/06/24 09:49:10;;;;;;;5.15;4.55;;;;;;;29.48;41.29;99502.49;1758412;80;21875;-77
2022/06/24 09:51:39;;;;;;;5.25;4.10;;;;;;;29.32;41.33;99509.31;1784608;78;21061;-76
2022/06/24 09:54:06;;;;;;;5.65;4.60;;;;;;;29.10;41.29;99504.45;1791349;78;21027;-74
2022/06/24 09:56:36;;;;;;;5.28;4.30;;;;;;;28.97;41.60;99506.80;1787591;78;21061;-78
2022/06/24 10:01:47;;;;;;;4.70;4.25;;;;;;;28.46;41.56;99508.05;1768818;79;21534;-80
2022/06/24 10:04:20;;;;;;;4.80;4.00;;;;;;;28.10;41.88;99510.63;1776347;78;21073;-77
2022/06/24 10:06:48;;;;;;;5.17;4.17;;;;;;;27.77;42.36;99508.22;1763962;79;21034;-77
2022/06/24 10:09:22;;;;;;;4.28;3.92;;;;;;;27.49;42.69;99504.38;1761339;79;21045;-77
2022/06/24 10:11:50;;;;;;;5.20;4.70;;;;;;;27.29;42.85;99508.09;1758566;80;21517;-78
2022/06/24 10:14:16;;;;;;;4.60;4.20;;;;;;;27.09;43.17;99510.40;1792694;78;21526;-78
2022/06/24 10:16:44;;;;;;;7.17;4.70;;;;;;;26.87;43.42;99506.98;1790178;80;21073;-79
2022/06/24 10:19:11;;;;;;;4.28;3.85;;;;;;;26.74;43.77;99506.24;1734121;80;21113;-78
2022/06/24 10:21:37;;;;;;;4.55;4.05;;;;;;;26.75;44.18;99507.86;1788690;80;21050;-78
2022/06/24 10:24:12;;;;;;;4.97;4.50;;;;;;;26.97;44.10;99499.84;1783671;80;21116;-79
2022/06/24 10:26:39;;;;;;;5.65;4.15;;;;;;;27.41;43.81;99506.64;1784938;78;21282;-77
2022/06/24 10:29:17;;;;;;;6.20;4.37;;;;;;;28.02;43.09;99510.70;1756172;80;21026;-78
2022/06/24 10:31:53;;;;;;;4.75;3.80;;;;;;;28.59;42.29;99500.53;1785020;78;21581;-76
2022/06/24 10:34:28;;;;;;;5.67;4.22;;;;;;;29.02;41.83;99502.62;1771481;80;20997;-79
2022/06/24 10:37:13;;;;;;;5.50;3.95;;;;;;;29.26;41.49;99496.84;1782686;80;21039;-78
2022/06/24 10:39:53;;;;;;;4.58;4.17;;;;;;;29.34;40.82;99498.88;1753750;81;21149;-78
2022/06/24 10:42:21;;;;;;;5.47;4.40;;;;;;;29.23;41.26;99496.08;1748199;80;21003;-77
2022/06/24 10:44:57;;;;;;;4.85;4.45;;;;;;;29.16;41.30;99501.91;1761101;81;21567;-77
2022/06/24 10:47:39;;;;;;;5.05;4.35;;;;;;;29.10;41.13;99495.68;1749815;81;21038;-77
2022/06/24 10:50:13;;;;;;;5.00;4.35;;;;;;;29.02;41.24;99493.62;1747630;81;21092;-77
2022/06/24 10:52:53;;;;;;;4.72;3.77;;;;;;;29.01;41.00;99492.82;1778170;80;21165;-76
2022/06/24 10:55:28;;;;;;;10.23;4.45;;;;;;;29.01;40.75;99486.52;1781761;80;21025;-77
2022/06/24 10:58:10;;;;;;;4.55;4.15;;;;;;;29.00;40.66;99491.18;1777734;80;21033;-77
2022/06/24 11:00:48;;;;;;;;;;;;;;;29.13;40.68;99495.12;1750550;81;21081;-78
2022/06/24 11:03:12;;;;;;;4.15;3.77;;;;;;;29.45;40.36;99482.55;1746821;80;20470;-75
2022/06/24 11:05:45;;;;;;;4.92;3.75;;;;;;;29.84;39.65;99488.18;1754290;81;21110;-77
2022/06/24 11:08:16;;;;;;;5.90;3.92;;;;;;;30.34;39.34;99482.03;1727629;81;21495;-78
2022/06/24 11:10:43;;;;;;;5.17;3.90;;;;;;;30.80;38.95;99481.60;1747358;80;21125;-77
2022/06/24 11:13:10;;;;;;;3.95;3.52;;;;;;;31.18;38.00;99482.64;1754422;80;21024;-77
2022/06/24 11:15:40;;;;;;;4.10;3.80;;;;;;;31.52;38.04;99477.44;1747596;81;21081;-77
2022/06/24 11:18:15;;;;;;;4.05;3.67;;;;;;;31.96;37.64;99472.70;1739029;80;21211;-78
2022/06/24 11:20:46;;;;;;;3.95;3.42;;;;;;;32.53;36.97;99471.35;1750942;80;21557;-79
2022/06/24 11:23:15;;;;;;;7.75;3.70;;;;;;;33.11;36.17;99469.32;1722843;81;22408;-78
2022/06/24 11:25:52;;;;;;;6.17;3.87;;;;;;;33.66;35.63;99474.06;1747114;81;21064;-76
2022/06/24 11:28:33;;;;;;;4.97;3.30;;;;;;;34.03;35.15;99474.98;1745816;81;21091;-75
2022/06/24 11:31:27;;;;;;;4.22;3.37;;;;;;;34.35;34.02;99468.03;1787239;80;21874;-76
2022/06/24 11:34:09;;;;;;;4.10;3.70;;;;;;;34.74;33.89;99470.70;1740181;81;21022;-76
2022/06/24 11:36:38;;;;;;;3.80;3.50;;;;;;;35.35;33.30;99454.42;1757517;81;21363;-77
2022/06/24 11:39:06;;;;;;;3.72;3.42;;;;;;;35.94;32.49;99453.25;1762382;80;21566;-78
2022/06/24 11:41:40;;;;;;;3.80;3.50;;;;;;;36.25;31.87;99453.26;1783536;80;21074;-78
2022/06/24 11:44:06;;;;;;;4.40;3.35;;;;;;;36.33;31.43;99447.38;1774960;80;21934;-80
2022/06/24 11:46:33;;;;;;;6.92;3.55;;;;;;;36.24;31.38;99456.37;1816889;79;21068;-79
2022/06/24 11:49:12;;;;;;;4.50;3.58;;;;;;;36.30;31.21;99450.85;1813139;79;20986;-77
2022/06/24 11:51:40;;;;;;;3.98;3.65;;;;;;;36.53;31.27;99437.30;1793363;79;20986;-79
2022/06/24 11:54:07;;;;;;;5.12;3.50;;;;;;;36.86;30.80;99441.83;1796797;79;21017;-77